createdAt,value
2022-10-17T00:00:47.388Z,69.85
2022-10-17T00:03:15.147Z,69.95
2022-10-17T00:05:46.900Z,69.97
2022-10-17T00:08:16.226Z,70.18
2022-10-17T00:10:43.241Z,70.23
2022-10-17T00:13:10.297Z,69.93
2022-10-17T00:15:37.432Z,70.03
2022-10-17T00:18:04.656Z,69.92
2022-10-17T00:20:33.037Z,70.33
2022-10-17T00:23:00.721Z,70.06
2022-10-17T00:25:27.783Z,69.97
2022-10-17T00:27:54.745Z,69.99
2022-10-17T00:30:21.743Z,69.87
2022-10-17T00:32:48.736Z,69.77
2022-10-17T00:35:15.749Z,70.03
2022-10-17T00:37:42.713Z,70.04
2022-10-17T00:40:10.798Z,70.08
2022-10-17T00:42:39.038Z,70.68
2022-10-17T00:45:28.754Z,71.28
2022-10-17T00:48:09.578Z,71.14
2022-10-17T00:50:39.092Z,71.04
2022-10-17T00:53:08.472Z,71.35
2022-10-17T00:55:39.579Z,71.26
2022-10-17T00:58:06.977Z,71.46
2022-10-17T01:00:37.053Z,71.34
2022-10-17T01:03:04.616Z,71.62
2022-10-17T01:05:31.830Z,71.69
2022-10-17T01:07:59.912Z,71.95
2022-10-17T01:10:32.238Z,71.88
2022-10-17T01:13:36.202Z,71.92
2022-10-17T01:16:13.858Z,71.84
2022-10-17T01:22:07.898Z,71.90
2022-10-17T01:25:27.426Z,71.16
2022-10-17T01:28:34.751Z,71.29
2022-10-17T01:31:16.692Z,70.75
2022-10-17T01:34:18.698Z,71.04
2022-10-17T01:36:56.906Z,71.25
2022-10-17T01:39:48.665Z,71.63
2022-10-17T01:42:31.106Z,71.67
2022-10-17T01:45:22.081Z,71.78
2022-10-17T01:47:53.179Z,72.13
2022-10-17T01:50:33.180Z,72.19
2022-10-17T01:53:08.853Z,72.18
2022-10-17T01:55:39.821Z,72.13
2022-10-17T01:58:24.236Z,71.99
2022-10-17T02:00:53.655Z,71.88
2022-10-17T02:03:22.015Z,71.54
2022-10-17T02:05:49.406Z,71.59
2022-10-17T02:08:26.749Z,71.74
2022-10-17T02:11:09.826Z,72.22
2022-10-17T02:17:25.531Z,72.70
2022-10-17T02:20:10.515Z,73.12
2022-10-17T02:23:02.938Z,73.65
2022-10-17T02:25:49.510Z,73.21
2022-10-17T02:28:32.504Z,73.55
2022-10-17T02:31:08.938Z,73.65
2022-10-17T02:34:00.304Z,73.76
2022-10-17T02:36:32.667Z,73.33
2022-10-17T02:39:03.286Z,73.50
2022-10-17T02:41:31.731Z,73.43
2022-10-17T02:44:01.624Z,73.43
2022-10-17T02:46:31.669Z,73.67
2022-10-17T02:49:07.639Z,73.87
2022-10-17T02:51:57.913Z,73.55
2022-10-17T02:54:51.726Z,73.58
2022-10-17T02:57:30.803Z,73.85
2022-10-17T03:00:04.296Z,74.52
2022-10-17T03:02:46.427Z,75.12
2022-10-17T03:05:17.262Z,74.99
2022-10-17T03:07:44.667Z,75.00
2022-10-17T03:10:11.729Z,75.31
2022-10-17T03:12:38.736Z,75.18
2022-10-17T03:15:06.681Z,75.79
2022-10-17T03:17:34.285Z,75.81
2022-10-17T03:20:01.300Z,75.66
2022-10-17T03:22:30.238Z,75.90
2022-10-17T03:24:59.066Z,75.71
2022-10-17T03:27:26.476Z,76.06
2022-10-17T03:29:53.685Z,75.81
2022-10-17T03:32:21.067Z,75.41
2022-10-17T03:34:48.473Z,75.44
2022-10-17T03:37:15.767Z,75.41
2022-10-17T03:39:43.880Z,75.45
2022-10-17T03:42:10.894Z,75.16
2022-10-17T03:44:38.260Z,75.74
2022-10-17T03:47:06.527Z,75.78
2022-10-17T03:49:36.340Z,75.80
2022-10-17T03:52:03.716Z,75.75
2022-10-17T03:54:30.905Z,76.02
2022-10-17T03:59:29.792Z,76.43
2022-10-17T04:02:05.018Z,76.28
2022-10-17T04:04:31.972Z,76.55
2022-10-17T04:06:58.954Z,76.67
2022-10-17T04:09:25.917Z,76.95
2022-10-17T04:12:05.581Z,77.82
2022-10-17T04:14:33.509Z,78.04
2022-10-17T04:17:01.515Z,78.54
2022-10-17T04:19:29.325Z,78.66
2022-10-17T04:21:56.579Z,78.76
2022-10-17T04:24:23.883Z,78.99
2022-10-17T04:27:09.710Z,79.21
2022-10-17T04:29:40.554Z,79.64
2022-10-17T04:32:16.265Z,79.85
2022-10-17T04:34:50.637Z,79.69
2022-10-17T04:37:19.561Z,79.48
2022-10-17T04:39:48.530Z,79.32
2022-10-17T04:42:15.623Z,79.53
2022-10-17T04:44:43.409Z,79.31
2022-10-17T04:47:10.670Z,79.40
2022-10-17T04:49:39.111Z,78.78
2022-10-17T04:52:09.842Z,79.42
2022-10-17T04:54:44.394Z,79.68
2022-10-17T04:57:13.785Z,80.09
2022-10-17T04:59:42.915Z,80.36
2022-10-17T05:02:22.118Z,80.87
2022-10-17T05:04:49.159Z,81.02
2022-10-17T05:07:16.620Z,81.01
2022-10-17T05:10:03.865Z,80.97
2022-10-17T05:12:32.460Z,80.85
2022-10-17T05:14:59.727Z,80.66
2022-10-17T05:17:28.511Z,80.77
2022-10-17T05:19:55.498Z,80.61
2022-10-17T05:22:22.839Z,81.14
2022-10-17T05:24:50.102Z,81.07
2022-10-17T05:27:17.199Z,81.06
2022-10-17T05:29:44.233Z,81.77
2022-10-17T05:32:18.981Z,81.89
2022-10-17T05:34:46.171Z,82.53
2022-10-17T05:37:13.622Z,82.80
2022-10-17T05:39:49.168Z,82.82
2022-10-17T05:42:22.509Z,83.38
2022-10-17T05:44:49.930Z,83.55
2022-10-17T05:47:19.494Z,83.90
2022-10-17T05:49:51.453Z,85.01
2022-10-17T05:52:25.489Z,85.56
2022-10-17T05:55:01.549Z,85.96
2022-10-17T05:57:28.564Z,85.46
2022-10-17T05:59:56.978Z,84.96
2022-10-17T06:02:24.077Z,84.30
2022-10-17T06:04:51.152Z,83.56
2022-10-17T06:07:20.874Z,82.98
2022-10-17T06:09:49.161Z,82.85
2022-10-17T06:12:16.398Z,82.59
2022-10-17T06:14:44.291Z,83.03
2022-10-17T06:17:15.988Z,81.89
2022-10-17T06:19:45.022Z,80.61
2022-10-17T06:22:14.333Z,78.60
2022-10-17T06:24:41.623Z,78.29
2022-10-17T06:27:11.737Z,78.40
2022-10-17T06:29:40.979Z,78.48
2022-10-17T06:32:11.090Z,79.02
2022-10-17T06:34:41.867Z,78.28
2022-10-17T06:37:09.623Z,78.64
2022-10-17T06:39:39.047Z,78.74
2022-10-17T06:42:10.970Z,77.57
2022-10-17T06:44:53.936Z,76.58
2022-10-17T06:47:39.854Z,76.57
2022-10-17T06:50:27.120Z,75.79
2022-10-17T06:53:06.303Z,74.28
2022-10-17T06:56:07.783Z,73.53
2022-10-17T06:58:53.212Z,73.11
2022-10-17T07:01:34.700Z,72.25
2022-10-17T07:04:03.762Z,72.36
2022-10-17T07:06:32.462Z,72.66
2022-10-17T07:09:07.139Z,72.56
2022-10-17T07:11:36.749Z,73.04
2022-10-17T07:14:04.051Z,74.56
2022-10-17T07:16:31.149Z,75.86
2022-10-17T07:19:05.337Z,71.52
2022-10-17T07:21:38.990Z,70.29
2022-10-17T07:24:08.008Z,69.78
2022-10-17T07:26:35.337Z,70.27
2022-10-17T07:29:02.634Z,70.17
2022-10-17T07:31:52.548Z,69.76
2022-10-17T07:34:19.613Z,69.51
2022-10-17T07:36:46.614Z,68.92
2022-10-17T07:39:15.250Z,68.02
2022-10-17T07:41:42.336Z,66.23
2022-10-17T07:44:09.447Z,65.91
2022-10-17T07:46:47.044Z,66.09
2022-10-17T07:49:14.119Z,65.34
2022-10-17T07:51:42.214Z,64.68
2022-10-17T07:54:09.504Z,64.52
2022-10-17T07:56:40.447Z,63.16
2022-10-17T07:59:09.378Z,61.96
2022-10-17T08:01:37.387Z,63.11
2022-10-17T08:04:04.437Z,62.91
2022-10-17T08:06:31.370Z,63.19
2022-10-17T08:08:59.064Z,63.23
2022-10-17T08:11:26.047Z,59.80
2022-10-17T08:13:53.046Z,60.31
2022-10-17T08:16:20.030Z,60.06
2022-10-17T08:18:46.949Z,59.67
2022-10-17T08:21:14.077Z,59.89
2022-10-17T08:23:41.853Z,57.93
2022-10-17T08:26:10.877Z,57.88
2022-10-17T08:28:39.966Z,57.63
2022-10-17T08:31:21.199Z,57.23
2022-10-17T08:33:49.442Z,55.53
2022-10-17T08:36:18.577Z,55.20
2022-10-17T08:38:50.344Z,54.74
2022-10-17T08:42:04.637Z,53.54
2022-10-17T08:45:19.528Z,52.85
2022-10-17T08:47:50.482Z,52.56
2022-10-17T08:50:40.640Z,52.02
2022-10-17T08:53:29.757Z,51.36
2022-10-17T08:55:59.973Z,49.82
2022-10-17T08:58:33.224Z,50.26
2022-10-17T09:01:13.248Z,49.48
2022-10-17T09:04:37.312Z,47.86
2022-10-17T09:07:56.461Z,46.87
2022-10-17T09:10:52.013Z,46.92
2022-10-17T09:14:11.343Z,45.72
2022-10-17T09:17:16.994Z,45.15
2022-10-17T09:19:53.833Z,45.18
2022-10-17T09:22:25.954Z,42.89
2022-10-17T09:24:57.398Z,42.04
2022-10-17T09:27:41.800Z,41.52
2022-10-17T09:30:46.707Z,40.47
2022-10-17T09:33:34.549Z,39.77
2022-10-17T09:36:16.056Z,39.57
2022-10-17T09:38:47.992Z,39.30
2022-10-17T09:44:18.792Z,37.82
2022-10-17T09:46:56.756Z,38.05
2022-10-17T09:49:32.798Z,37.25
2022-10-17T09:52:01.986Z,37.13
2022-10-17T09:54:52.374Z,36.15
2022-10-17T09:57:20.901Z,34.69
2022-10-17T10:00:00.497Z,33.55
2022-10-17T10:02:30.118Z,33.42
2022-10-17T10:05:06.932Z,34.10
2022-10-17T10:07:39.415Z,32.78
2022-10-17T10:10:23.687Z,32.46
2022-10-17T10:13:25.933Z,32.05
2022-10-17T10:15:53.297Z,29.33
2022-10-17T10:18:36.358Z,28.66
2022-10-17T10:21:18.067Z,29.06
2022-10-17T10:24:03.997Z,27.02
2022-10-17T10:26:59.145Z,24.91
2022-10-17T10:29:55.063Z,25.84
2022-10-17T10:35:36.068Z,25.97
2022-10-17T10:38:08.955Z,25.21
2022-10-17T10:40:45.759Z,25.41
2022-10-17T10:43:41.889Z,25.82
2022-10-17T10:46:24.266Z,25.44
2022-10-17T10:49:02.396Z,25.65
2022-10-17T10:51:38.578Z,23.42
2022-10-17T10:54:44.752Z,23.45
2022-10-17T10:57:20.969Z,22.97
2022-10-17T11:00:26.099Z,22.74
2022-10-17T11:03:12.781Z,23.40
2022-10-17T11:05:53.557Z,23.31
2022-10-17T11:08:31.308Z,23.02
2022-10-17T11:11:32.383Z,23.99
2022-10-17T11:14:31.361Z,24.14
2022-10-17T11:17:17.410Z,22.62
2022-10-17T11:20:03.103Z,23.06
2022-10-17T11:22:33.259Z,21.71
2022-10-17T11:25:33.128Z,22.12
2022-10-17T11:28:04.683Z,21.62
2022-10-17T11:30:46.216Z,21.52
2022-10-17T11:33:24.515Z,21.01
2022-10-17T11:35:54.690Z,21.35
2022-10-17T11:38:33.423Z,21.36
2022-10-17T11:41:00.951Z,21.76
2022-10-17T11:44:05.455Z,21.03
2022-10-17T11:46:36.347Z,21.94
2022-10-17T11:49:19.832Z,20.52
2022-10-17T11:52:43.919Z,20.91
2022-10-17T11:55:25.141Z,20.50
2022-10-17T11:58:25.449Z,20.06
2022-10-17T12:01:25.080Z,20.32
2022-10-17T12:04:26.945Z,20.02
2022-10-17T12:07:32.804Z,20.14
2022-10-17T12:10:24.395Z,20.61
2022-10-17T12:12:51.434Z,19.85
2022-10-17T12:15:36.709Z,19.84
2022-10-17T12:18:04.415Z,19.78
2022-10-17T12:20:36.796Z,19.80
2022-10-17T12:23:27.104Z,19.86
2022-10-17T12:26:04.656Z,19.89
2022-10-17T12:28:44.556Z,19.64
2022-10-17T12:31:29.665Z,20.41
2022-10-17T12:34:02.198Z,19.42
2022-10-17T12:36:39.064Z,18.88
2022-10-17T12:39:46.437Z,19.16
2022-10-17T12:42:33.080Z,18.39
2022-10-17T12:45:00.224Z,17.92
2022-10-17T12:47:39.768Z,18.62
2022-10-17T12:50:46.229Z,18.85
2022-10-17T12:53:20.255Z,18.93
2022-10-17T12:55:48.107Z,19.29
2022-10-17T12:58:16.918Z,19.30
2022-10-17T13:03:46.281Z,19.05
2022-10-17T13:06:22.004Z,19.01
2022-10-17T13:08:58.689Z,19.17
2022-10-17T13:11:31.718Z,18.65
2022-10-17T13:13:59.302Z,18.67
2022-10-17T13:16:38.564Z,18.47
2022-10-17T13:19:15.175Z,18.53
2022-10-17T13:22:13.689Z,18.64
2022-10-17T13:24:41.327Z,18.56
2022-10-17T13:27:32.638Z,18.61
2022-10-17T13:30:03.508Z,18.42
2022-10-17T13:32:38.794Z,18.20
2022-10-17T13:35:11.933Z,18.09
2022-10-17T13:37:41.743Z,18.19
2022-10-17T13:40:44.094Z,17.90
2022-10-17T13:43:06.108Z,18.09
2022-10-17T13:45:37.147Z,17.97
2022-10-17T13:48:08.348Z,17.78
2022-10-17T13:50:44.620Z,17.57
2022-10-17T13:53:44.153Z,17.27
2022-10-17T13:56:29.833Z,17.53
2022-10-17T13:59:00.248Z,17.01
2022-10-17T14:01:29.273Z,17.03
2022-10-17T14:04:08.520Z,17.39
2022-10-17T14:06:45.196Z,17.40
2022-10-17T14:09:25.330Z,17.44
2022-10-17T14:12:19.765Z,17.44
2022-10-17T14:15:09.787Z,17.94
2022-10-17T14:17:38.673Z,17.90
2022-10-17T14:20:40.703Z,17.80
2022-10-17T14:23:21.620Z,17.32
2022-10-17T14:25:46.944Z,15.72
2022-10-17T14:28:17.082Z,14.88
2022-10-17T14:31:01.417Z,14.15
2022-10-17T14:33:32.188Z,13.41
2022-10-17T14:36:02.182Z,13.31
2022-10-17T14:38:30.461Z,13.01
2022-10-17T14:41:37.339Z,12.71
2022-10-17T14:43:57.417Z,11.91
2022-10-17T14:46:24.900Z,12.10
2022-10-17T14:49:07.041Z,12.51
2022-10-17T14:51:44.759Z,12.35
2022-10-17T14:54:28.704Z,12.49
2022-10-17T14:56:56.125Z,12.40
2022-10-17T14:59:52.058Z,12.31
2022-10-17T15:02:12.310Z,12.74
2022-10-17T15:04:39.243Z,12.98
2022-10-17T15:07:06.302Z,13.27
2022-10-17T15:09:33.198Z,13.09
2022-10-17T15:12:07.227Z,13.46
2022-10-17T15:14:34.452Z,13.63
2022-10-17T15:17:01.504Z,14.16
2022-10-17T15:19:28.427Z,15.14
2022-10-17T15:21:55.332Z,16.40
2022-10-17T15:24:22.286Z,17.49
2022-10-17T15:26:49.729Z,17.97
2022-10-17T15:29:16.712Z,18.48
2022-10-17T15:31:43.789Z,19.51
2022-10-17T15:34:10.688Z,20.25
2022-10-17T15:36:41.344Z,21.18
2022-10-17T15:39:10.069Z,21.97
2022-10-17T15:41:39.248Z,22.95
2022-10-17T15:44:06.296Z,23.37
2022-10-17T15:46:35.255Z,24.00
2022-10-17T15:49:07.717Z,24.67
2022-10-17T15:51:34.780Z,25.16
2022-10-17T15:54:01.988Z,25.59
2022-10-17T15:56:36.441Z,25.86
2022-10-17T15:59:06.223Z,26.62
2022-10-17T16:01:34.364Z,27.04
2022-10-17T16:04:01.578Z,27.57
2022-10-17T16:06:29.283Z,28.19
2022-10-17T16:08:56.340Z,29.08
2022-10-17T16:11:33.798Z,29.48
2022-10-17T16:14:03.352Z,29.76
2022-10-17T16:16:30.529Z,30.15
2022-10-17T16:18:58.048Z,30.67
2022-10-17T16:21:28.453Z,30.94
2022-10-17T16:23:55.611Z,30.93
2022-10-17T16:26:22.794Z,31.00
2022-10-17T16:28:49.795Z,31.38
2022-10-17T16:31:22.673Z,31.51
2022-10-17T16:33:52.310Z,31.98
2022-10-17T16:36:19.759Z,32.27
2022-10-17T16:38:47.663Z,32.50
2022-10-17T16:41:36.531Z,32.68
2022-10-17T16:44:08.963Z,33.03
2022-10-17T16:46:37.661Z,32.83
2022-10-17T16:49:07.823Z,32.96
2022-10-17T16:51:36.028Z,32.97
2022-10-17T16:54:04.819Z,32.96
2022-10-17T16:56:33.248Z,33.23
2022-10-17T16:59:01.271Z,33.39
2022-10-17T17:01:29.515Z,33.59
2022-10-17T17:03:56.996Z,33.75
2022-10-17T17:06:27.094Z,33.77
2022-10-17T17:08:55.171Z,33.74
2022-10-17T17:11:24.525Z,33.82
2022-10-17T17:13:52.010Z,34.15
2022-10-17T17:16:23.469Z,34.33
2022-10-17T17:18:59.100Z,34.54
2022-10-17T17:21:27.219Z,34.65
2022-10-17T17:23:57.106Z,34.49
2022-10-17T17:26:24.726Z,35.17
2022-10-17T17:28:53.481Z,35.91
2022-10-17T17:31:25.725Z,35.89
2022-10-17T17:33:57.199Z,35.91
2022-10-17T17:36:26.958Z,36.18
2022-10-17T17:38:56.388Z,36.41
2022-10-17T17:41:23.788Z,36.52
2022-10-17T17:43:51.204Z,36.81
2022-10-17T17:46:20.543Z,37.25
2022-10-17T17:48:48.837Z,37.84
2022-10-17T17:51:18.584Z,38.42
2022-10-17T17:53:45.552Z,38.79
2022-10-17T17:56:18.709Z,39.36
2022-10-17T17:58:47.122Z,39.71
2022-10-17T18:01:21.899Z,40.34
2022-10-17T18:03:50.134Z,40.51
2022-10-17T18:06:18.237Z,40.70
2022-10-17T18:08:48.057Z,40.90
2022-10-17T18:11:17.150Z,41.11
2022-10-17T18:13:47.253Z,41.57
2022-10-17T18:16:14.164Z,41.95
2022-10-17T18:18:43.219Z,42.48
2022-10-17T18:21:13.041Z,42.32
2022-10-17T18:23:41.740Z,42.73
2022-10-17T18:26:09.152Z,42.98
2022-10-17T18:28:38.158Z,43.15
2022-10-17T18:31:10.707Z,43.38
2022-10-17T18:33:37.879Z,43.80
2022-10-17T18:36:07.272Z,43.84
2022-10-17T18:38:34.580Z,43.95
2022-10-17T18:41:12.770Z,44.08
2022-10-17T18:43:41.756Z,44.09
2022-10-17T18:46:17.838Z,43.94
2022-10-17T18:48:46.262Z,43.93
2022-10-17T18:51:14.579Z,43.77
2022-10-17T18:53:43.519Z,43.70
2022-10-17T18:56:11.425Z,43.61
2022-10-17T18:58:39.343Z,43.63
2022-10-17T19:01:09.590Z,43.44
2022-10-17T19:03:36.572Z,43.44
2022-10-17T19:06:07.395Z,43.37
2022-10-17T19:08:35.839Z,43.38
2022-10-17T19:11:10.970Z,43.28
2022-10-17T19:13:38.458Z,43.23
2022-10-17T19:16:07.009Z,43.33
2022-10-17T19:18:36.716Z,43.83
2022-10-17T19:21:06.031Z,44.00
2022-10-17T19:23:35.535Z,44.68
2022-10-17T19:26:09.289Z,45.07
2022-10-17T19:28:38.262Z,45.59
2022-10-17T19:31:06.740Z,45.70
2022-10-17T19:33:34.498Z,45.94
2022-10-17T19:36:04.328Z,46.18
2022-10-17T19:38:31.368Z,45.88
2022-10-17T19:43:30.267Z,46.27
2022-10-17T19:45:59.184Z,46.06
2022-10-17T19:48:27.103Z,46.45
2022-10-17T19:50:54.202Z,46.21
2022-10-17T19:53:23.791Z,46.37
2022-10-17T19:55:51.434Z,46.22
2022-10-17T19:58:18.373Z,46.33
2022-10-17T20:00:50.302Z,46.16
2022-10-17T20:03:18.104Z,46.56
2022-10-17T20:05:45.964Z,46.30
2022-10-17T20:08:13.624Z,46.69
2022-10-17T20:10:40.890Z,46.65
2022-10-17T20:13:08.094Z,46.59
2022-10-17T20:15:34.972Z,46.71
2022-10-17T20:18:02.037Z,47.05
2022-10-17T20:20:29.066Z,47.28
2022-10-17T20:22:56.057Z,46.99
2022-10-17T20:25:23.182Z,47.22
2022-10-17T20:27:50.087Z,47.58
2022-10-17T20:30:17.141Z,47.29
2022-10-17T20:32:44.079Z,47.59
2022-10-17T20:35:11.125Z,47.47
2022-10-17T20:37:41.639Z,47.50
2022-10-17T20:40:33.721Z,47.32
2022-10-17T20:42:57.391Z,47.48
2022-10-17T20:45:37.502Z,47.34
2022-10-17T20:48:15.279Z,47.66
2022-10-17T20:50:43.451Z,47.43
2022-10-17T20:53:35.463Z,47.79
2022-10-17T20:56:21.577Z,47.58
2022-10-17T20:59:16.442Z,47.66
2022-10-17T21:01:45.234Z,47.46
2022-10-17T21:04:45.296Z,47.37
2022-10-17T21:06:59.849Z,47.55
2022-10-17T21:09:26.767Z,48.19
2022-10-17T21:11:55.806Z,48.23
2022-10-17T21:14:24.901Z,48.68
2022-10-17T21:16:55.090Z,48.60
2022-10-17T21:19:22.212Z,48.48
2022-10-17T21:21:49.213Z,48.29
2022-10-17T21:24:19.312Z,48.63
2022-10-17T21:26:48.001Z,48.92
2022-10-17T21:29:15.304Z,48.99
2022-10-17T21:31:44.091Z,49.34
2022-10-17T21:34:13.464Z,49.57
2022-10-17T21:36:41.127Z,49.66
2022-10-17T21:41:40.985Z,50.78
2022-10-17T21:44:12.664Z,50.49
2022-10-17T21:46:39.685Z,50.46
2022-10-17T21:49:07.143Z,50.58
2022-10-17T21:51:34.200Z,50.55
2022-10-17T21:54:04.377Z,50.56
2022-10-17T21:56:34.835Z,50.56
2022-10-17T21:59:02.217Z,50.61
2022-10-17T22:01:31.635Z,50.43
2022-10-17T22:04:01.351Z,50.61
2022-10-17T22:06:40.521Z,51.47
2022-10-17T22:09:18.122Z,51.40
2022-10-17T22:11:47.616Z,51.36
2022-10-17T22:14:17.402Z,51.13
2022-10-17T22:16:47.759Z,51.39
2022-10-17T22:19:17.021Z,51.73
2022-10-17T22:21:44.229Z,51.81
2022-10-17T22:24:17.055Z,51.62
2022-10-17T22:26:44.802Z,52.03
2022-10-17T22:29:12.077Z,52.10
2022-10-17T22:31:39.304Z,51.64
2022-10-17T22:34:07.728Z,51.54
2022-10-17T22:36:35.144Z,51.88
2022-10-17T22:39:02.436Z,51.76
2022-10-17T22:41:29.434Z,51.87
2022-10-17T22:43:56.448Z,51.96
2022-10-17T22:46:23.408Z,52.21
2022-10-17T22:48:50.292Z,51.92
2022-10-17T22:51:17.825Z,52.42
2022-10-17T22:53:44.914Z,52.76
2022-10-17T22:56:17.270Z,53.04
2022-10-17T22:58:44.311Z,53.38
2022-10-17T23:01:16.053Z,53.48
2022-10-17T23:03:43.421Z,53.77
2022-10-17T23:06:10.619Z,53.91
2022-10-17T23:08:37.866Z,54.04
2022-10-17T23:11:05.601Z,54.04
2022-10-17T23:13:32.545Z,54.86
2022-10-17T23:15:59.510Z,54.36
2022-10-17T23:18:27.220Z,54.98
2022-10-17T23:20:54.620Z,54.48
2022-10-17T23:23:21.879Z,53.87
2022-10-17T23:25:49.601Z,53.49
2022-10-17T23:28:16.936Z,53.91
2022-10-17T23:30:44.285Z,55.18
2022-10-17T23:33:13.091Z,54.89
2022-10-17T23:35:40.566Z,54.55
2022-10-17T23:38:07.492Z,54.30
2022-10-17T23:40:35.538Z,54.04
2022-10-17T23:43:03.561Z,53.45
2022-10-17T23:45:34.656Z,54.24
2022-10-17T23:48:04.912Z,53.91
2022-10-17T23:50:31.913Z,53.87
2022-10-17T23:52:58.931Z,54.47
2022-10-17T23:55:25.901Z,54.47
2022-10-17T23:57:53.283Z,54.33
